Time;durP1;ratioP1;P1;durP2;ratioP2;P2;SDS_P1;SDS_P2;PMS_P1;PMS_P2;Temp;Humidity;BMP_temperature;BMP_pressure;BME280_temperature;BME280_humidity;BME280_pressure;Samples;Min_cycle;Max_cycle;Signal;HPM_P1;HPM_P2
2022/10/14 00:00:24;;;;;;;37.70;35.10;;;14.10;99.90;;;;;;4970492;28;20476;-75
2022/10/14 00:02:52;;;;;;;36.20;33.80;;;14.10;99.90;;;;;;4970633;28;20600;-76
2022/10/14 00:05:19;;;;;;;35.53;33.07;;;14.20;99.90;;;;;;4970606;28;20460;-76
2022/10/14 00:07:45;;;;;;;36.50;33.93;;;14.20;99.90;;;;;;4970880;28;20456;-75
2022/10/14 00:10:12;;;;;;;35.67;33.10;;;14.20;99.90;;;;;;4970708;28;20452;-76
2022/10/14 00:12:39;;;;;;;34.57;32.30;;;14.20;99.90;;;;;;4970457;28;20510;-78
2022/10/14 00:15:07;;;;;;;33.73;31.30;;;14.20;99.90;;;;;;4970391;28;20609;-78
2022/10/14 00:17:34;;;;;;;37.00;34.17;;;14.20;99.90;;;;;;4970257;28;20559;-79
2022/10/14 00:20:02;;;;;;;34.73;32.17;;;14.30;99.90;;;;;;4970861;28;20455;-78
2022/10/14 00:22:29;;;;;;;34.43;31.73;;;14.30;99.90;;;;;;4970890;28;20534;-78
2022/10/14 00:24:56;;;;;;;32.07;29.53;;;14.30;99.90;;;;;;4977586;28;20452;-81
2022/10/14 00:27:22;;;;;;;31.13;28.83;;;14.30;99.90;;;;;;4970263;28;20478;-81
2022/10/14 00:29:49;;;;;;;31.40;28.83;;;14.20;99.90;;;;;;4971211;28;20826;-80
2022/10/14 00:32:16;;;;;;;29.93;27.63;;;14.20;99.90;;;;;;4971033;28;20842;-79
2022/10/14 00:34:43;;;;;;;29.23;27.10;;;14.20;99.90;;;;;;4973508;28;20534;-78
2022/10/14 00:37:11;;;;;;;29.10;26.93;;;14.20;99.90;;;;;;4970734;28;20451;-79
2022/10/14 00:39:38;;;;;;;28.33;26.47;;;14.20;99.90;;;;;;4974514;28;20478;-76
2022/10/14 00:42:04;;;;;;;28.97;26.73;;;14.20;99.90;;;;;;4974766;28;20486;-77
2022/10/14 00:45:01;;;;;;;28.03;26.10;;;14.30;99.90;;;;;;4974938;28;20451;-78
2022/10/14 00:47:29;;;;;;;29.47;27.27;;;14.30;99.90;;;;;;4974860;28;20451;-78
2022/10/14 00:49:57;;;;;;;29.30;26.40;;;14.30;99.90;;;;;;4974349;28;20455;-75
2022/10/14 00:52:25;;;;;;;29.33;27.00;;;14.30;99.90;;;;;;4974029;28;20487;-77
2022/10/14 00:54:54;;;;;;;27.87;25.60;;;14.30;99.90;;;;;;4974088;28;20459;-76
2022/10/14 00:57:22;;;;;;;27.10;25.00;;;14.30;99.90;;;;;;4973844;28;20456;-76
2022/10/14 00:59:49;;;;;;;27.30;25.33;;;14.30;99.90;;;;;;4973853;28;20483;-75
2022/10/14 01:02:16;;;;;;;25.53;23.87;;;14.30;99.90;;;;;;4973966;28;20585;-76
2022/10/14 01:04:44;;;;;;;25.07;23.17;;;14.20;99.90;;;;;;4974350;28;20455;-75
2022/10/14 01:31:10;;;;;;;32.27;29.93;;;14.20;99.90;;;;;;5782280;23;20632;-79
2022/10/14 01:33:40;;;;;;;31.40;28.97;;;14.10;99.90;;;;;;4951739;28;21334;-78
2022/10/14 01:36:12;;;;;;;30.00;26.77;;;14.20;99.90;;;;;;4953543;28;20452;-77
2022/10/14 01:38:43;;;;;;;28.13;25.77;;;14.10;99.90;;;;;;4953762;29;20463;-78
2022/10/14 01:41:17;;;;;;;28.83;26.83;;;14.10;99.90;;;;;;4953384;29;20462;-75
2022/10/14 01:43:47;;;;;;;30.80;28.33;;;14.10;99.90;;;;;;4953068;29;20453;-75
2022/10/14 01:46:18;;;;;;;27.40;25.50;;;14.20;99.90;;;;;;4952973;29;20471;-75
2022/10/14 01:48:49;;;;;;;27.50;25.53;;;14.30;99.90;;;;;;4952712;28;20596;-77
2022/10/14 01:51:19;;;;;;;30.30;27.67;;;14.30;99.90;;;;;;4952050;29;20452;-78
2022/10/14 01:53:53;;;;;;;27.77;25.80;;;14.30;99.90;;;;;;4952949;29;20492;-77
2022/10/14 01:56:21;;;;;;;27.77;25.67;;;14.40;99.90;;;;;;4953278;29;20453;-78
2022/10/14 01:58:49;;;;;;;32.03;29.00;;;14.50;99.90;;;;;;4953569;29;20456;-78
2022/10/14 02:01:17;;;;;;;29.37;26.93;;;14.50;99.90;;;;;;4953200;28;20483;-78
2022/10/14 02:03:46;;;;;;;29.60;27.10;;;14.50;99.90;;;;;;4953324;29;20440;-78
2022/10/14 02:06:19;;;;;;;30.37;27.67;;;14.40;99.90;;;;;;4952812;29;20461;-78
2022/10/14 02:09:12;;;;;;;31.00;28.50;;;14.30;99.90;;;;;;4952554;29;20998;-79
2022/10/14 02:11:49;;;;;;;30.50;27.87;;;14.30;99.90;;;;;;4943872;29;20461;-80
2022/10/14 02:14:27;;;;;;;33.40;30.80;;;14.40;99.90;;;;;;4953245;29;20452;-78
2022/10/14 02:17:01;;;;;;;33.63;31.13;;;14.50;99.90;;;;;;4944933;29;20467;-76
2022/10/14 02:19:35;;;;;;;32.87;30.67;;;14.50;99.90;;;;;;4952360;29;20456;-75
2022/10/14 02:22:08;;;;;;;35.17;32.43;;;14.40;99.90;;;;;;4952555;29;20472;-74
2022/10/14 02:24:39;;;;;;;35.27;32.87;;;14.30;99.90;;;;;;4952518;29;20942;-75
2022/10/14 02:27:11;;;;;;;34.07;31.70;;;14.40;99.90;;;;;;4952843;29;20453;-77
2022/10/14 02:29:40;;;;;;;37.17;34.53;;;14.50;99.90;;;;;;4952864;29;20460;-75
2022/10/14 02:32:09;;;;;;;38.10;35.50;;;14.50;99.90;;;;;;4959884;28;20604;-77
2022/10/14 02:34:37;;;;;;;38.90;36.27;;;14.50;99.90;;;;;;4971693;28;20968;-76
2022/10/14 02:37:05;;;;;;;36.77;34.00;;;14.50;99.90;;;;;;4971665;28;20798;-77
2022/10/14 02:39:36;;;;;;;36.07;33.87;;;14.50;99.90;;;;;;4971643;28;20452;-75
2022/10/14 02:42:03;;;;;;;39.00;36.13;;;14.40;99.90;;;;;;4971785;28;20551;-75
2022/10/14 02:44:29;;;;;;;36.27;33.80;;;14.40;99.90;;;;;;4971311;28;20659;-75
2022/10/14 02:46:56;;;;;;;37.07;34.60;;;14.30;99.90;;;;;;4971333;28;20843;-75
2022/10/14 02:49:24;;;;;;;38.00;35.10;;;14.30;99.90;;;;;;4971610;28;20988;-75
2022/10/14 02:51:51;;;;;;;37.80;35.13;;;14.30;99.90;;;;;;4971556;28;20456;-75
2022/10/14 02:54:18;;;;;;;38.00;35.43;;;14.30;99.90;;;;;;4971036;28;20503;-75
2022/10/14 02:56:44;;;;;;;38.60;35.90;;;14.30;99.90;;;;;;4971251;28;20463;-75
2022/10/14 02:59:11;;;;;;;37.97;35.10;;;14.30;99.90;;;;;;4971343;28;20834;-75
2022/10/14 03:01:38;;;;;;;38.97;36.47;;;14.20;99.90;;;;;;4970996;28;20532;-75
2022/10/14 03:04:04;;;;;;;38.00;35.40;;;14.20;99.90;;;;;;4971343;28;20466;-76
2022/10/14 03:06:33;;;;;;;37.27;34.70;;;14.10;99.90;;;;;;4971205;28;20455;-76
2022/10/14 03:08:59;;;;;;;37.20;34.60;;;14.00;99.90;;;;;;4971042;28;20652;-76
2022/10/14 03:11:26;;;;;;;36.03;33.70;;;14.00;99.90;;;;;;4971053;28;20463;-76
2022/10/14 03:13:53;;;;;;;36.33;33.47;;;14.00;99.90;;;;;;4971069;28;20483;-76
2022/10/14 03:16:19;;;;;;;34.03;31.87;;;14.00;99.90;;;;;;4970784;28;20443;-75
2022/10/14 03:18:46;;;;;;;35.03;32.50;;;14.00;99.90;;;;;;4970973;28;20798;-75
2022/10/14 03:21:13;;;;;;;36.47;33.63;;;14.00;99.90;;;;;;4970815;28;20458;-75
2022/10/14 03:23:41;;;;;;;35.47;33.10;;;14.00;99.90;;;;;;4971013;28;20456;-76
2022/10/14 03:26:08;;;;;;;35.07;32.93;;;14.00;99.90;;;;;;4971008;28;20868;-76
2022/10/14 03:28:35;;;;;;;36.13;33.53;;;13.90;99.90;;;;;;4970337;28;20543;-75
2022/10/14 03:31:01;;;;;;;35.27;32.70;;;14.00;99.90;;;;;;4970236;28;20468;-75
2022/10/14 03:33:28;;;;;;;34.80;32.50;;;14.00;99.90;;;;;;4970042;28;20495;-75
2022/10/14 03:35:55;;;;;;;35.60;33.33;;;13.90;99.90;;;;;;4970532;28;20474;-75
2022/10/14 03:38:22;;;;;;;36.73;34.13;;;13.90;99.90;;;;;;4970511;28;20550;-75
2022/10/14 03:40:50;;;;;;;36.50;33.90;;;13.90;99.90;;;;;;4970059;28;20455;-75
2022/10/14 03:43:16;;;;;;;35.73;33.40;;;14.00;99.90;;;;;;4970286;28;20439;-75
2022/10/14 03:45:44;;;;;;;36.23;33.80;;;14.00;99.90;;;;;;4970169;28;20459;-75
2022/10/14 03:48:11;;;;;;;36.77;33.83;;;13.90;99.90;;;;;;4970098;28;20458;-74
2022/10/14 03:50:38;;;;;;;36.40;34.00;;;13.80;99.90;;;;;;4970394;28;20448;-74
2022/10/14 03:53:04;;;;;;;35.53;32.80;;;13.80;99.90;;;;;;4969732;28;20494;-75
2022/10/14 03:55:31;;;;;;;35.87;33.40;;;13.70;99.90;;;;;;4969749;28;20953;-75
2022/10/14 03:57:59;;;;;;;35.17;32.77;;;13.70;99.90;;;;;;4969333;28;20460;-74
2022/10/14 04:00:26;;;;;;;35.80;33.30;;;13.70;99.90;;;;;;4969720;28;20824;-73
2022/10/14 04:02:53;;;;;;;37.83;35.13;;;13.70;99.90;;;;;;4970001;28;20452;-74
2022/10/14 04:05:19;;;;;;;36.37;33.63;;;13.60;99.90;;;;;;4969743;28;20451;-73
2022/10/14 04:07:46;;;;;;;36.93;34.23;;;13.60;99.90;;;;;;4969669;28;20456;-73
2022/10/14 04:10:13;;;;;;;37.57;34.73;;;13.60;99.90;;;;;;4969370;28;20467;-73
2022/10/14 04:12:39;;;;;;;37.47;34.63;;;13.60;99.90;;;;;;4969018;28;20448;-72
2022/10/14 04:15:09;;;;;;;41.27;38.33;;;13.60;99.90;;;;;;4969700;28;20543;-72
2022/10/14 04:17:36;;;;;;;40.10;37.17;;;13.60;99.90;;;;;;4969750;28;20454;-72
2022/10/14 04:20:03;;;;;;;41.60;38.50;;;13.80;99.90;;;;;;4969632;28;20547;-73
2022/10/14 04:22:29;;;;;;;39.70;36.60;;;13.80;99.90;;;;;;4969447;28;20455;-72
2022/10/14 04:24:56;;;;;;;39.63;36.63;;;13.90;99.90;;;;;;4969431;28;20452;-74
2022/10/14 04:27:23;;;;;;;39.87;36.80;;;13.80;99.90;;;;;;4969651;28;20462;-74
2022/10/14 04:29:51;;;;;;;38.50;35.63;;;13.70;99.90;;;;;;4969628;28;20455;-74
2022/10/14 04:32:20;;;;;;;38.43;35.63;;;13.70;99.90;;;;;;4969334;28;20487;-74
2022/10/14 04:34:46;;;;;;;41.33;37.83;;;13.70;99.90;;;;;;4969401;28;20483;-76
2022/10/14 04:37:13;;;;;;;41.17;37.47;;;13.70;99.90;;;;;;4969616;28;20451;-75
2022/10/14 04:39:40;;;;;;;40.40;37.37;;;13.70;99.90;;;;;;4969752;28;20940;-75
2022/10/14 04:42:07;;;;;;;40.10;37.20;;;13.80;99.90;;;;;;4969745;28;20450;-74
2022/10/14 04:44:34;;;;;;;40.80;37.83;;;13.70;99.90;;;;;;4969605;28;20439;-75
2022/10/14 04:47:00;;;;;;;40.60;37.30;;;13.70;99.90;;;;;;4969474;28;20456;-74
2022/10/14 04:49:28;;;;;;;41.40;38.27;;;13.70;99.90;;;;;;4969839;28;20456;-74
2022/10/14 04:51:55;;;;;;;41.10;38.00;;;13.70;99.90;;;;;;4970115;28;20451;-75
2022/10/14 04:54:22;;;;;;;40.37;37.17;;;13.70;99.90;;;;;;4969768;28;20491;-75
2022/10/14 04:56:49;;;;;;;39.87;37.07;;;13.70;99.90;;;;;;4969389;28;20459;-75
2022/10/14 04:59:15;;;;;;;41.40;37.20;;;13.90;99.90;;;;;;4969491;28;20844;-74
2022/10/14 05:01:42;;;;;;;41.40;38.30;;;13.80;99.90;;;;;;4969104;28;20458;-75
2022/10/14 05:04:09;;;;;;;41.07;37.83;;;13.70;99.90;;;;;;4969599;28;20913;-75
2022/10/14 05:06:37;;;;;;;40.70;37.30;;;13.80;99.90;;;;;;4969397;28;20754;-74
2022/10/14 05:09:04;;;;;;;40.77;37.47;;;13.70;99.90;;;;;;4969211;28;20771;-74
2022/10/14 05:11:31;;;;;;;42.40;38.93;;;13.70;99.90;;;;;;4969063;28;20543;-75
2022/10/14 05:13:57;;;;;;;42.90;39.40;;;13.70;99.90;;;;;;4969075;28;20564;-75
2022/10/14 05:16:24;;;;;;;41.83;38.10;;;13.70;99.90;;;;;;4969647;28;20447;-75
2022/10/14 05:18:51;;;;;;;39.63;35.60;;;13.70;99.90;;;;;;4969369;28;20468;-75
2022/10/14 05:21:18;;;;;;;40.47;36.70;;;13.70;99.90;;;;;;4969240;28;20902;-75
2022/10/14 05:23:46;;;;;;;39.60;36.40;;;13.70;99.90;;;;;;4969851;28;20447;-75
2022/10/14 05:26:13;;;;;;;41.07;37.77;;;13.70;99.90;;;;;;4972805;28;20459;-75
2022/10/14 05:28:40;;;;;;;41.37;37.67;;;13.70;99.90;;;;;;4972889;28;20456;-75
2022/10/14 05:31:07;;;;;;;43.60;39.90;;;13.70;99.90;;;;;;4972758;28;20486;-77
2022/10/14 05:33:35;;;;;;;39.03;35.70;;;13.70;99.90;;;;;;4972478;28;20495;-75
2022/10/14 05:36:01;;;;;;;39.13;36.10;;;13.60;99.90;;;;;;4972730;28;20559;-75
2022/10/14 05:38:31;;;;;;;37.30;34.40;;;13.60;99.90;;;;;;4972547;28;20795;-75
2022/10/14 05:40:59;;;;;;;37.77;34.97;;;13.60;99.90;;;;;;4972916;28;20461;-75
2022/10/14 05:43:26;;;;;;;37.43;34.37;;;13.60;99.90;;;;;;4973182;28;20787;-75
2022/10/14 05:45:53;;;;;;;36.77;33.93;;;13.60;99.90;;;;;;4973014;28;20562;-74
2022/10/14 05:48:20;;;;;;;35.93;32.87;;;13.60;99.90;;;;;;4972761;28;20470;-75
2022/10/14 05:50:46;;;;;;;38.70;35.60;;;13.60;99.90;;;;;;4972468;28;20451;-76
2022/10/14 05:53:13;;;;;;;43.40;39.33;;;13.70;99.90;;;;;;4972595;28;20818;-76
2022/10/14 05:55:40;;;;;;;43.87;40.03;;;13.60;99.90;;;;;;4972802;28;20941;-75
2022/10/14 05:58:08;;;;;;;39.97;36.67;;;13.60;99.90;;;;;;4972826;28;20811;-75
2022/10/14 06:00:35;;;;;;;39.07;35.90;;;13.60;99.90;;;;;;4972249;28;21121;-74
2022/10/14 06:03:02;;;;;;;41.73;37.80;;;13.60;99.90;;;;;;4972160;28;20444;-75
2022/10/14 06:05:28;;;;;;;39.97;36.60;;;13.70;99.90;;;;;;4972173;28;20471;-76
2022/10/14 06:07:55;;;;;;;39.57;36.07;;;13.70;99.90;;;;;;4972928;28;20500;-73
2022/10/14 06:10:22;;;;;;;40.67;36.63;;;13.70;99.90;;;;;;4972791;28;20464;-75
2022/10/14 06:12:49;;;;;;;38.10;34.80;;;13.70;99.90;;;;;;4972395;28;20467;-75
2022/10/14 06:15:17;;;;;;;41.23;37.70;;;13.70;99.90;;;;;;4971857;28;20764;-75
2022/10/14 06:17:44;;;;;;;37.70;34.70;;;13.80;99.90;;;;;;4971948;28;20595;-75
2022/10/14 06:20:11;;;;;;;39.77;36.30;;;13.80;99.90;;;;;;4972028;28;20454;-77
2022/10/14 06:22:38;;;;;;;37.63;34.63;;;13.80;99.90;;;;;;4972257;28;20451;-76
2022/10/14 06:25:05;;;;;;;35.27;32.03;;;13.80;99.90;;;;;;4971991;28;20455;-76
2022/10/14 06:27:32;;;;;;;34.40;31.57;;;13.90;99.90;;;;;;4971926;28;20997;-77
2022/10/14 06:29:59;;;;;;;38.17;34.53;;;13.80;99.90;;;;;;4971762;28;20448;-76
2022/10/14 06:32:27;;;;;;;35.17;32.40;;;13.90;99.90;;;;;;4971820;28;20988;-76
2022/10/14 06:34:53;;;;;;;34.03;30.97;;;13.90;99.90;;;;;;4971660;28;20491;-76
2022/10/14 06:37:20;;;;;;;36.67;33.50;;;13.90;99.90;;;;;;4970958;28;20976;-76
2022/10/14 06:39:54;;;;;;;33.63;30.67;;;13.90;99.90;;;;;;4971566;28;20726;-74
2022/10/14 06:42:21;;;;;;;34.10;30.87;;;14.00;99.90;;;;;;4969371;28;20456;-75
2022/10/14 06:44:47;;;;;;;32.33;29.60;;;14.00;99.90;;;;;;4969861;28;20490;-76
2022/10/14 06:47:14;;;;;;;32.77;29.90;;;14.10;99.90;;;;;;4970645;28;20459;-76
2022/10/14 06:49:42;;;;;;;33.80;31.23;;;14.10;99.90;;;;;;4971090;28;20458;-74
2022/10/14 06:52:09;;;;;;;32.53;29.77;;;14.10;99.90;;;;;;4971881;28;20448;-75
2022/10/14 06:54:35;;;;;;;31.37;28.63;;;14.10;99.90;;;;;;4971375;28;20487;-76
2022/10/14 06:57:02;;;;;;;33.67;30.90;;;14.20;99.90;;;;;;4971863;28;20459;-80
2022/10/14 06:59:29;;;;;;;34.40;31.53;;;14.20;99.90;;;;;;4971644;28;20551;-77
2022/10/14 07:01:56;;;;;;;31.33;28.37;;;14.30;99.90;;;;;;4961522;28;20464;-76
2022/10/14 07:04:22;;;;;;;30.70;28.00;;;14.30;99.90;;;;;;4961798;28;20466;-76
2022/10/14 07:06:51;;;;;;;30.63;28.03;;;14.40;99.90;;;;;;4952396;29;20479;-77
2022/10/14 07:09:18;;;;;;;28.67;26.30;;;14.50;99.90;;;;;;4956945;28;20455;-76
2022/10/14 07:11:45;;;;;;;28.10;25.60;;;14.50;99.90;;;;;;4971301;28;20452;-76
2022/10/14 07:14:12;;;;;;;31.87;28.90;;;14.40;99.90;;;;;;4971308;28;20498;-76
2022/10/14 07:16:38;;;;;;;29.57;27.30;;;14.40;99.90;;;;;;4971369;28;20459;-76
2022/10/14 07:19:05;;;;;;;29.43;27.10;;;14.50;99.90;;;;;;4960897;28;20474;-76
2022/10/14 07:21:32;;;;;;;26.93;24.63;;;14.60;99.90;;;;;;4990946;28;20455;-75
2022/10/14 07:24:00;;;;;;;30.20;27.67;;;14.60;99.90;;;;;;4990583;28;20810;-75
2022/10/14 07:26:29;;;;;;;28.77;26.37;;;14.60;99.90;;;;;;4990427;28;20457;-77
2022/10/14 07:28:56;;;;;;;27.50;25.50;;;14.70;99.90;;;;;;4990542;28;20462;-76
2022/10/14 07:31:22;;;;;;;28.93;26.67;;;14.70;99.90;;;;;;4990044;28;20806;-76
2022/10/14 07:33:49;;;;;;;26.97;24.63;;;14.80;99.90;;;;;;4989602;28;21063;-75
2022/10/14 07:36:18;;;;;;;28.17;26.10;;;14.80;99.90;;;;;;4971683;28;20451;-77
2022/10/14 07:38:45;;;;;;;26.93;24.77;;;14.90;99.90;;;;;;4970756;28;20608;-76
2022/10/14 07:41:17;;;;;;;30.00;25.20;;;15.00;99.90;;;;;;4970960;28;20455;-76
2022/10/14 07:43:44;;;;;;;27.13;25.23;;;15.20;99.90;;;;;;4970760;28;20452;-75
2022/10/14 07:46:11;;;;;;;27.43;24.87;;;15.40;99.90;;;;;;4970606;28;20454;-76
2022/10/14 07:48:39;;;;;;;27.00;24.80;;;15.50;99.90;;;;;;4970038;28;20466;-75
2022/10/14 07:51:06;;;;;;;26.47;24.63;;;15.70;99.90;;;;;;4965931;28;20492;-74
2022/10/14 07:53:32;;;;;;;24.80;22.90;;;15.80;99.90;;;;;;4970183;28;20458;-75
2022/10/14 07:55:59;;;;;;;27.83;25.60;;;15.90;99.90;;;;;;4967802;28;20470;-75
2022/10/14 07:58:30;;;;;;;25.53;23.30;;;16.00;99.90;;;;;;4970151;28;20830;-75
2022/10/14 08:00:57;;;;;;;24.80;22.80;;;16.20;99.90;;;;;;4969952;28;20459;-74
2022/10/14 08:03:25;;;;;;;23.00;21.10;;;16.10;99.90;;;;;;4970336;28;20447;-74
2022/10/14 08:05:58;;;;;;;24.37;22.73;;;16.10;99.90;;;;;;4969997;28;20447;-74
2022/10/14 08:08:27;;;;;;;23.23;21.53;;;16.00;99.90;;;;;;4969827;28;20459;-75
2022/10/14 08:11:00;;;;;;;23.03;21.23;;;16.10;99.90;;;;;;4970122;28;20460;-75
2022/10/14 08:13:29;;;;;;;24.33;22.90;;;16.00;99.90;;;;;;4969693;28;20788;-75
2022/10/14 08:15:55;;;;;;;23.47;21.97;;;15.90;99.90;;;;;;4969836;28;21044;-75
2022/10/14 08:18:22;;;;;;;23.30;21.80;;;15.80;99.90;;;;;;4968310;28;20536;-75
2022/10/14 08:20:49;;;;;;;22.90;21.23;;;15.80;99.90;;;;;;4969727;28;20444;-75
2022/10/14 08:23:16;;;;;;;24.37;22.77;;;15.80;99.90;;;;;;4969565;28;20452;-74
2022/10/14 08:25:43;;;;;;;23.53;22.07;;;15.70;99.90;;;;;;4969836;28;20463;-74
2022/10/14 08:28:09;;;;;;;23.10;20.97;;;15.70;99.90;;;;;;4969873;28;20455;-75
2022/10/14 08:30:37;;;;;;;23.13;21.60;;;15.70;99.90;;;;;;4969339;28;20997;-75
2022/10/14 08:33:05;;;;;;;23.23;21.93;;;15.80;99.90;;;;;;4969316;28;20495;-74
2022/10/14 08:35:31;;;;;;;24.57;22.60;;;15.80;99.90;;;;;;4969186;28;20495;-75
2022/10/14 08:38:00;;;;;;;23.90;21.93;;;15.90;99.90;;;;;;4969190;28;20451;-75
2022/10/14 08:40:28;;;;;;;22.40;20.60;;;16.00;99.90;;;;;;4969203;28;20458;-75
2022/10/14 08:43:01;;;;;;;25.47;23.70;;;16.00;99.90;;;;;;4969450;28;20459;-75
2022/10/14 08:45:33;;;;;;;23.23;21.43;;;16.20;99.90;;;;;;4969168;28;20576;-74
2022/10/14 08:48:08;;;;;;;23.63;22.00;;;16.50;99.90;;;;;;4969139;28;20459;-74
2022/10/14 08:50:41;;;;;;;22.03;20.63;;;16.40;99.90;;;;;;4969254;28;20470;-74
2022/10/14 08:53:14;;;;;;;24.80;23.10;;;16.50;99.90;;;;;;4969792;28;20452;-74
2022/10/14 08:55:43;;;;;;;22.93;21.20;;;16.50;99.90;;;;;;4969490;28;20491;-74
2022/10/14 08:58:16;;;;;;;23.63;21.73;;;16.50;99.90;;;;;;4969463;28;20452;-74
2022/10/14 09:00:44;;;;;;;22.47;20.97;;;16.60;99.90;;;;;;4972866;28;20451;-74
2022/10/14 09:03:18;;;;;;;21.23;19.93;;;16.90;99.90;;;;;;4972916;28;20461;-74
2022/10/14 09:05:44;;;;;;;22.10;20.80;;;16.90;99.90;;;;;;4972726;28;20719;-75
2022/10/14 09:08:15;;;;;;;20.87;19.57;;;17.00;99.90;;;;;;4973087;28;20459;-75
2022/10/14 09:10:43;;;;;;;21.47;20.27;;;17.10;99.90;;;;;;4971282;28;20459;-75
2022/10/14 09:13:17;;;;;;;20.83;19.37;;;17.00;99.90;;;;;;4973439;28;20455;-74
2022/10/14 09:15:48;;;;;;;21.90;20.53;;;17.10;99.90;;;;;;4972795;28;20487;-75
2022/10/14 09:18:26;;;;;;;21.90;20.30;;;17.20;99.90;;;;;;4972896;28;20455;-75
2022/10/14 09:20:55;;;;;;;21.03;19.83;;;17.30;99.90;;;;;;4973152;28;20458;-75
2022/10/14 09:23:23;;;;;;;20.83;19.40;;;17.30;99.90;;;;;;4972890;28;20459;-75
2022/10/14 09:25:55;;;;;;;21.37;19.50;;;17.30;99.90;;;;;;4972985;28;20451;-76
2022/10/14 09:28:29;;;;;;;20.30;19.00;;;17.30;99.90;;;;;;4972913;28;20459;-74
2022/10/14 09:30:55;;;;;;;21.50;19.70;;;17.40;99.90;;;;;;4973006;28;20505;-74
2022/10/14 09:33:26;;;;;;;20.40;18.80;;;17.20;99.90;;;;;;4973451;28;20479;-75
2022/10/14 09:35:53;;;;;;;18.50;17.20;;;17.40;99.90;;;;;;4973617;28;20487;-74
2022/10/14 09:38:21;;;;;;;19.07;17.67;;;17.40;99.90;;;;;;4973170;28;20465;-74
2022/10/14 09:40:51;;;;;;;20.47;19.00;;;17.40;99.90;;;;;;4972736;28;20519;-74
2022/10/14 09:43:20;;;;;;;19.83;18.60;;;17.50;99.90;;;;;;4972766;28;20452;-74
2022/10/14 09:45:50;;;;;;;21.03;19.60;;;17.50;99.90;;;;;;4972474;28;20477;-74
2022/10/14 09:48:19;;;;;;;20.63;19.33;;;17.40;99.90;;;;;;4972858;28;20447;-74
2022/10/14 09:50:52;;;;;;;20.20;18.60;;;17.30;99.90;;;;;;4972614;28;20479;-73
2022/10/14 09:53:25;;;;;;;18.90;17.40;;;17.40;99.90;;;;;;4972843;28;20451;-73
2022/10/14 09:55:54;;;;;;;20.10;18.90;;;17.30;99.90;;;;;;4972742;28;20479;-73
2022/10/14 09:58:29;;;;;;;20.23;19.00;;;17.40;99.90;;;;;;4972756;28;20443;-74
2022/10/14 10:00:57;;;;;;;18.60;17.23;;;17.50;99.90;;;;;;4972369;28;20850;-74
2022/10/14 10:03:26;;;;;;;19.40;18.17;;;17.50;99.90;;;;;;4972313;28;20456;-74
2022/10/14 10:06:02;;;;;;;18.67;17.40;;;17.60;99.90;;;;;;4972657;28;20462;-73
2022/10/14 10:08:29;;;;;;;19.07;17.77;;;17.80;99.90;;;;;;4972574;28;20488;-74
2022/10/14 10:10:58;;;;;;;18.20;17.10;;;18.10;99.90;;;;;;4971500;28;20813;-74
2022/10/14 10:13:32;;;;;;;18.03;16.73;;;18.20;99.90;;;;;;4972399;28;20462;-72
2022/10/14 10:16:02;;;;;;;17.13;16.00;;;18.40;99.90;;;;;;4969758;28;20499;-73
2022/10/14 10:18:28;;;;;;;16.73;15.60;;;18.80;99.90;;;;;;4971787;28;20869;-73
2022/10/14 10:21:07;;;;;;;19.40;17.70;;;19.10;99.90;;;;;;4972278;28;20825;-73
2022/10/14 10:23:36;;;;;;;21.40;19.40;;;19.70;99.90;;;;;;4972636;28;20550;-74
2022/10/14 10:26:17;;;;;;;18.30;17.30;;;19.80;99.90;;;;;;4972383;28;20462;-73
2022/10/14 10:28:48;;;;;;;18.07;17.07;;;19.70;99.90;;;;;;4971870;28;20452;-73
2022/10/14 10:31:45;;;;;;;18.10;17.00;;;19.70;99.90;;;;;;4971599;28;20993;-74
2022/10/14 10:34:33;;;;;;;18.43;17.23;;;19.80;99.90;;;;;;4955470;28;20526;-73
2022/10/14 10:37:07;;;;;;;18.07;16.97;;;19.80;99.90;;;;;;4971703;28;20530;-74
2022/10/14 10:39:46;;;;;;;18.00;17.00;;;19.60;99.90;;;;;;4971325;28;20800;-73
2022/10/14 10:42:20;;;;;;;18.53;17.43;;;19.80;99.90;;;;;;4971264;28;20458;-74
2022/10/14 10:45:00;;;;;;;19.40;18.10;;;19.80;99.90;;;;;;4971352;28;20904;-73
2022/10/14 10:47:34;;;;;;;19.10;17.50;;;19.80;99.90;;;;;;4971573;28;20460;-74
2022/10/14 10:50:29;;;;;;;17.80;16.80;;;19.80;99.90;;;;;;4971510;28;20478;-72
2022/10/14 10:53:28;;;;;;;18.47;17.20;;;20.00;99.90;;;;;;4971682;28;20459;-72
2022/10/14 10:56:07;;;;;;;18.23;16.97;;;20.00;99.90;;;;;;4971518;28;20490;-73
2022/10/14 10:58:43;;;;;;;18.60;17.60;;;20.20;99.90;;;;;;4971324;28;20459;-73
2022/10/14 11:01:24;;;;;;;18.70;17.50;;;20.10;99.90;;;;;;4971755;28;20470;-73
2022/10/14 11:04:08;;;;;;;19.20;17.50;;;20.00;99.90;;;;;;4971748;28;20546;-72
2022/10/14 11:12:25;;;;;;;17.67;16.03;;;19.70;99.90;;;;;;4971113;28;20446;-73
2022/10/14 11:15:12;;;;;;;17.47;16.37;;;19.60;99.90;;;;;;4971185;28;20634;-73
2022/10/14 11:17:48;;;;;;;18.03;17.03;;;19.60;99.90;;;;;;4971332;28;20462;-72
2022/10/14 11:20:25;;;;;;;18.83;17.43;;;19.40;99.90;;;;;;4970758;28;20798;-74
2022/10/14 11:23:05;;;;;;;18.03;16.93;;;19.30;99.90;;;;;;4970254;28;20458;-74
2022/10/14 11:25:45;;;;;;;23.23;21.67;;;19.10;99.90;;;;;;4970816;28;21256;-80
2022/10/14 11:28:21;;;;;;;40.33;37.93;;;19.00;99.90;;;;;;4965977;28;20468;-79
2022/10/14 11:30:58;;;;;;;41.10;38.50;;;18.60;99.90;;;;;;4957798;28;20480;-78
2022/10/14 11:33:54;;;;;;;38.57;36.27;;;18.30;99.90;;;;;;4969964;28;21014;-78
2022/10/14 11:36:30;;;;;;;38.47;36.47;;;18.00;99.90;;;;;;4953807;28;20484;-78
2022/10/14 11:39:18;;;;;;;39.67;37.37;;;17.90;99.90;;;;;;4952539;29;20860;-78
2022/10/14 11:42:03;;;;;;;37.67;34.93;;;18.00;99.90;;;;;;4952308;29;20483;-78
2022/10/14 11:44:36;;;;;;;34.47;32.27;;;17.90;99.90;;;;;;4956482;28;20879;-79
2022/10/14 11:47:09;;;;;;;34.37;32.43;;;17.90;99.90;;;;;;4972674;28;20456;-78
2022/10/14 11:49:44;;;;;;;31.70;30.00;;;17.80;99.90;;;;;;4971844;28;20460;-78
2022/10/14 11:52:17;;;;;;;34.17;32.47;;;17.70;99.90;;;;;;4971486;28;20456;-77
2022/10/14 11:54:48;;;;;;;31.43;30.03;;;17.60;99.90;;;;;;4971128;28;20452;-78
2022/10/14 11:57:26;;;;;;;25.60;24.43;;;17.50;99.90;;;;;;4970891;28;20439;-77
2022/10/14 11:59:58;;;;;;;20.87;19.83;;;17.60;99.90;;;;;;4970747;28;20460;-77
2022/10/14 12:02:38;;;;;;;19.47;18.57;;;17.80;99.90;;;;;;4958592;28;20671;-77
2022/10/14 12:05:13;;;;;;;19.93;18.83;;;18.20;99.90;;;;;;4950553;29;20551;-75
2022/10/14 12:07:45;;;;;;;18.77;17.87;;;18.70;99.90;;;;;;4967054;28;20452;-76
2022/10/14 12:10:22;;;;;;;20.40;19.10;;;18.90;99.90;;;;;;4969378;28;20518;-76
2022/10/14 12:12:51;;;;;;;17.60;16.70;;;19.00;99.90;;;;;;4970124;28;20513;-76
2022/10/14 12:15:22;;;;;;;18.57;17.57;;;19.50;99.90;;;;;;4969965;28;20487;-75
2022/10/14 12:17:53;;;;;;;17.97;17.07;;;19.80;99.90;;;;;;4969773;28;20448;-74
2022/10/14 12:20:27;;;;;;;19.70;18.40;;;19.70;99.90;;;;;;4969853;28;20459;-74
2022/10/14 12:22:56;;;;;;;17.23;16.43;;;19.40;99.90;;;;;;4969978;28;20466;-74
2022/10/14 12:25:26;;;;;;;17.27;16.37;;;19.50;99.90;;;;;;4969900;28;20440;-74
2022/10/14 12:27:54;;;;;;;15.67;14.77;;;19.90;99.90;;;;;;4970181;28;20459;-75
2022/10/14 12:30:33;;;;;;;16.17;15.47;;;20.10;99.90;;;;;;4969804;28;20498;-74
2022/10/14 12:33:01;;;;;;;14.90;14.00;;;20.20;99.90;;;;;;4969483;28;20680;-75
2022/10/14 12:35:53;;;;;;;13.87;13.27;;;20.20;99.90;;;;;;4969152;28;20487;-73
2022/10/14 12:38:21;;;;;;;14.50;13.90;;;20.20;99.90;;;;;;4967592;28;20517;-73
2022/10/14 12:40:48;;;;;;;14.03;13.40;;;20.20;99.90;;;;;;4969565;28;20452;-73
2022/10/14 12:43:28;;;;;;;15.30;14.17;;;20.30;99.90;;;;;;4969618;28;20549;-73
2022/10/14 12:46:12;;;;;;;14.27;13.63;;;20.30;99.90;;;;;;4962379;28;20605;-73
2022/10/14 12:48:49;;;;;;;13.93;13.30;;;20.40;99.90;;;;;;4970210;28;20452;-74
2022/10/14 12:51:18;;;;;;;13.50;12.70;;;20.40;99.90;;;;;;4968849;28;20975;-73
2022/10/14 12:53:56;;;;;;;13.73;12.87;;;20.40;99.90;;;;;;4970043;28;20474;-73
2022/10/14 12:56:36;;;;;;;13.60;12.83;;;20.30;99.90;;;;;;4970453;28;20519;-73
2022/10/14 12:59:07;;;;;;;14.13;13.30;;;20.00;99.90;;;;;;4969583;28;20455;-73
2022/10/14 13:01:35;;;;;;;13.83;13.23;;;19.90;99.90;;;;;;4969542;28;20462;-73
2022/10/14 13:04:05;;;;;;;13.60;13.00;;;19.90;99.90;;;;;;4969570;28;20898;-73
2022/10/14 13:06:38;;;;;;;14.00;12.93;;;19.90;99.90;;;;;;4969168;28;20448;-74
2022/10/14 13:09:33;;;;;;;13.73;13.13;;;20.10;99.90;;;;;;4969662;28;20971;-74
2022/10/14 13:12:33;;;;;;;13.13;12.63;;;20.40;99.90;;;;;;4946114;28;20515;-73